createdAt,value
2019-05-26T00:00:02.542Z,15.19
2019-05-26T00:01:02.568Z,15.22
2019-05-26T00:02:02.601Z,15.15
2019-05-26T00:03:02.616Z,15.10
2019-05-26T00:04:02.638Z,15.04
2019-05-26T00:05:02.678Z,15.02
2019-05-26T00:06:02.688Z,15.18
2019-05-26T00:07:02.711Z,15.15
2019-05-26T00:08:02.747Z,15.18
2019-05-26T00:09:02.758Z,15.10
2019-05-26T00:10:02.900Z,15.08
2019-05-26T00:11:02.810Z,15.04
2019-05-26T00:12:02.834Z,15.02
2019-05-26T00:13:02.860Z,15.11
2019-05-26T00:14:02.886Z,14.94
2019-05-26T00:15:02.908Z,15.02
2019-05-26T00:16:02.939Z,14.96
2019-05-26T00:17:02.964Z,14.93
2019-05-26T00:18:02.990Z,14.99
2019-05-26T00:19:03.015Z,14.94
2019-05-26T00:20:03.038Z,15.10
2019-05-26T00:21:03.072Z,15.02
2019-05-26T00:22:03.085Z,14.97
2019-05-26T00:23:03.107Z,14.99
2019-05-26T00:24:03.134Z,14.97
2019-05-26T00:25:03.159Z,14.90
2019-05-26T00:26:03.174Z,14.85
2019-05-26T00:27:03.214Z,14.92
2019-05-26T00:28:03.237Z,14.97
2019-05-26T00:29:03.248Z,14.92
2019-05-26T00:30:03.280Z,14.85
2019-05-26T00:31:03.361Z,14.86
2019-05-26T00:32:03.336Z,14.86
2019-05-26T00:33:03.363Z,14.79
2019-05-26T00:34:03.379Z,14.77
2019-05-26T00:35:03.402Z,14.78
2019-05-26T00:36:03.428Z,14.85
2019-05-26T00:37:03.463Z,14.74
2019-05-26T00:38:03.475Z,14.73
2019-05-26T00:39:03.512Z,14.67
2019-05-26T00:40:03.521Z,14.68
2019-05-26T00:41:03.545Z,14.67
2019-05-26T00:42:03.575Z,14.59
2019-05-26T00:43:03.599Z,14.62
2019-05-26T00:44:03.691Z,14.73
2019-05-26T00:45:03.651Z,14.87
2019-05-26T00:46:03.683Z,14.77
2019-05-26T00:47:03.696Z,14.71
2019-05-26T00:48:03.723Z,14.82
2019-05-26T00:49:03.745Z,14.62
2019-05-26T00:50:03.763Z,14.61
2019-05-26T00:51:03.788Z,14.52
2019-05-26T00:52:03.941Z,14.67
2019-05-26T00:53:03.838Z,14.67
2019-05-26T00:54:03.864Z,14.70
2019-05-26T00:55:03.896Z,14.87
2019-05-26T00:56:03.915Z,14.78
2019-05-26T00:57:03.939Z,14.70
2019-05-26T00:58:03.965Z,14.44
2019-05-26T00:59:03.980Z,14.53
2019-05-26T01:00:04.007Z,14.45
2019-05-26T01:01:04.038Z,14.62
2019-05-26T01:02:04.062Z,14.81
2019-05-26T01:03:04.082Z,14.79
2019-05-26T01:04:04.126Z,14.68
2019-05-26T01:05:04.130Z,14.71
2019-05-26T01:06:04.158Z,14.93
2019-05-26T01:07:04.186Z,14.94
2019-05-26T01:08:06.669Z,15.02
2019-05-26T01:09:04.253Z,15.04
2019-05-26T01:10:04.261Z,14.99
2019-05-26T01:11:04.280Z,14.81
2019-05-26T01:12:04.303Z,14.85
2019-05-26T01:13:04.332Z,14.71
2019-05-26T01:14:04.351Z,14.58
2019-05-26T01:15:04.375Z,14.48
2019-05-26T01:16:04.412Z,14.48
2019-05-26T01:17:04.419Z,14.43
2019-05-26T01:18:04.449Z,14.55
2019-05-26T01:19:04.475Z,14.51
2019-05-26T01:20:04.548Z,14.49
2019-05-26T01:21:04.538Z,14.31
2019-05-26T01:22:04.548Z,14.18
2019-05-26T01:23:04.588Z,14.31
2019-05-26T01:24:04.598Z,14.15
2019-05-26T01:25:04.623Z,14.20
2019-05-26T01:26:04.641Z,14.20
2019-05-26T01:27:04.668Z,14.33
2019-05-26T01:28:04.708Z,14.31
2019-05-26T01:29:04.716Z,14.23
2019-05-26T01:30:04.742Z,14.23
2019-05-26T01:31:04.776Z,14.18
2019-05-26T01:32:04.789Z,14.33
2019-05-26T01:33:04.811Z,14.36
2019-05-26T01:34:04.849Z,14.33
2019-05-26T01:35:04.859Z,14.23
2019-05-26T01:36:04.891Z,14.30
2019-05-26T01:37:04.918Z,14.36
2019-05-26T01:38:04.933Z,14.48
2019-05-26T01:39:04.958Z,14.58
2019-05-26T01:40:04.982Z,14.61
2019-05-26T01:41:05.005Z,14.71
2019-05-26T01:42:05.031Z,14.81
2019-05-26T01:43:05.056Z,14.90
2019-05-26T01:44:05.088Z,14.87
2019-05-26T01:45:05.118Z,14.89
2019-05-26T01:46:05.132Z,14.82
2019-05-26T01:47:05.158Z,14.89
2019-05-26T01:48:05.183Z,14.96
2019-05-26T01:49:05.212Z,14.94
2019-05-26T01:50:05.237Z,14.93
2019-05-26T01:51:05.263Z,14.90
2019-05-26T01:52:05.279Z,14.93
2019-05-26T01:53:05.302Z,14.86
2019-05-26T01:54:05.322Z,14.79
2019-05-26T01:55:05.355Z,14.71
2019-05-26T01:56:05.372Z,14.73
2019-05-26T01:57:05.412Z,14.62
2019-05-26T01:58:05.427Z,14.63
2019-05-26T01:59:05.443Z,14.71
2019-05-26T02:00:05.472Z,14.71
2019-05-26T02:01:05.500Z,14.81
2019-05-26T02:02:05.518Z,14.82
2019-05-26T02:03:05.550Z,14.82
2019-05-26T02:04:05.594Z,14.71
2019-05-26T02:05:05.592Z,14.45
2019-05-26T02:06:05.616Z,14.52
2019-05-26T02:07:05.652Z,14.51
2019-05-26T02:08:05.666Z,14.67
2019-05-26T02:09:05.700Z,14.63
2019-05-26T02:10:05.718Z,14.43
2019-05-26T02:11:05.738Z,14.53
2019-05-26T02:12:05.776Z,14.66
2019-05-26T02:13:05.796Z,14.48
2019-05-26T02:14:05.812Z,14.53
2019-05-26T02:15:05.850Z,14.44
2019-05-26T02:16:05.879Z,14.51
2019-05-26T02:17:05.914Z,14.53
2019-05-26T02:18:05.925Z,14.26
2019-05-26T02:19:05.936Z,14.16
2019-05-26T02:20:05.958Z,14.16
2019-05-26T02:21:06.107Z,13.95
2019-05-26T02:22:06.025Z,14.07
2019-05-26T02:23:06.032Z,14.19
2019-05-26T02:24:06.092Z,14.13
2019-05-26T02:25:06.095Z,13.87
2019-05-26T02:26:06.131Z,13.91
2019-05-26T02:27:06.140Z,13.85
2019-05-26T02:28:06.155Z,13.87
2019-05-26T02:29:06.188Z,13.83
2019-05-26T02:30:06.203Z,13.75
2019-05-26T02:31:06.226Z,13.71
2019-05-26T02:32:06.250Z,13.82
2019-05-26T02:33:06.277Z,13.64
2019-05-26T02:34:06.312Z,13.70
2019-05-26T02:35:06.322Z,13.58
2019-05-26T02:36:06.362Z,13.55
2019-05-26T02:37:06.376Z,13.54
2019-05-26T02:38:06.401Z,13.55
2019-05-26T02:39:06.429Z,13.54
2019-05-26T02:40:06.440Z,13.64
2019-05-26T02:41:06.466Z,13.61
2019-05-26T02:42:06.494Z,13.89
2019-05-26T02:43:06.517Z,13.76
2019-05-26T02:44:06.561Z,13.73
2019-05-26T02:45:06.569Z,13.68
2019-05-26T02:46:06.590Z,13.62
2019-05-26T02:47:06.612Z,13.65
2019-05-26T02:48:06.639Z,13.42
2019-05-26T02:49:06.664Z,13.46
2019-05-26T02:50:06.689Z,13.45
2019-05-26T02:51:06.707Z,13.49
2019-05-26T02:52:06.744Z,13.42
2019-05-26T02:53:06.757Z,13.46
2019-05-26T02:54:06.822Z,13.65
2019-05-26T02:55:06.809Z,13.87
2019-05-26T02:56:06.829Z,14.01
2019-05-26T02:57:06.855Z,14.08
2019-05-26T02:58:06.880Z,14.19
2019-05-26T02:59:06.902Z,14.28
2019-05-26T03:00:06.943Z,14.23
2019-05-26T03:01:06.950Z,14.25
2019-05-26T03:02:06.984Z,14.31
2019-05-26T03:03:07.002Z,14.43
2019-05-26T03:04:07.028Z,14.13
2019-05-26T03:05:07.049Z,13.97
2019-05-26T03:06:07.074Z,13.73
2019-05-26T03:07:07.100Z,13.65
2019-05-26T03:08:07.120Z,13.64
2019-05-26T03:09:21.847Z,13.61
2019-05-26T03:10:07.174Z,13.45
2019-05-26T03:11:07.192Z,13.40
2019-05-26T03:12:07.216Z,13.37
2019-05-26T03:13:07.246Z,13.17
2019-05-26T03:14:07.283Z,13.16
2019-05-26T03:15:07.289Z,13.40
2019-05-26T03:16:07.321Z,13.17
2019-05-26T03:17:07.335Z,13.20
2019-05-26T03:18:07.366Z,13.21
2019-05-26T03:19:07.403Z,13.27
2019-05-26T03:20:07.412Z,13.09
2019-05-26T03:21:07.437Z,13.12
2019-05-26T03:22:07.463Z,13.23
2019-05-26T03:23:07.484Z,13.17
2019-05-26T03:24:07.507Z,13.12
2019-05-26T03:25:07.538Z,13.01
2019-05-26T03:26:07.562Z,13.06
2019-05-26T03:27:07.582Z,12.95
2019-05-26T03:28:07.637Z,13.05
2019-05-26T03:29:07.691Z,13.01
2019-05-26T03:30:07.653Z,12.94
2019-05-26T03:31:07.690Z,12.93
2019-05-26T03:32:07.712Z,13.01
2019-05-26T03:33:07.724Z,13.01
2019-05-26T03:34:07.946Z,12.95
2019-05-26T03:35:07.769Z,12.93
2019-05-26T03:36:10.513Z,13.02
2019-05-26T03:37:07.830Z,12.99
2019-05-26T03:38:07.923Z,13.01
2019-05-26T03:39:07.892Z,12.91
2019-05-26T03:40:07.903Z,12.86
2019-05-26T03:41:07.915Z,12.88
2019-05-26T03:42:07.946Z,12.88
2019-05-26T03:43:07.964Z,13.05
2019-05-26T03:44:07.991Z,12.98
2019-05-26T03:45:08.015Z,13.06
2019-05-26T03:46:08.037Z,12.95
2019-05-26T03:47:08.059Z,12.94
2019-05-26T03:48:08.089Z,13.09
2019-05-26T03:49:08.110Z,12.87
2019-05-26T03:50:08.131Z,12.91
2019-05-26T03:51:08.148Z,12.88
2019-05-26T03:52:08.181Z,12.99
2019-05-26T03:53:08.203Z,12.94
2019-05-26T03:54:08.231Z,12.95
2019-05-26T03:55:08.256Z,12.95
2019-05-26T03:56:08.273Z,12.90
2019-05-26T03:57:08.293Z,12.78
2019-05-26T03:58:08.330Z,12.94
2019-05-26T03:59:08.346Z,13.09
2019-05-26T04:00:08.367Z,12.93
2019-05-26T04:01:08.390Z,12.90
2019-05-26T04:02:08.415Z,12.87
2019-05-26T04:03:08.438Z,12.91
2019-05-26T04:04:08.467Z,13.05
2019-05-26T04:05:08.490Z,13.05
2019-05-26T04:06:08.505Z,13.05
2019-05-26T04:07:08.533Z,12.98
2019-05-26T04:08:08.563Z,13.09
2019-05-26T04:09:08.578Z,12.98
2019-05-26T04:10:08.608Z,13.01
2019-05-26T04:11:08.658Z,13.03
2019-05-26T04:12:08.653Z,13.13
2019-05-26T04:13:08.678Z,13.12
2019-05-26T04:14:08.714Z,13.12
2019-05-26T04:15:08.724Z,13.13
2019-05-26T04:16:08.862Z,13.17
2019-05-26T04:17:08.775Z,13.30
2019-05-26T04:18:08.802Z,13.30
2019-05-26T04:19:08.826Z,13.21
2019-05-26T04:20:08.846Z,13.16
2019-05-26T04:21:08.871Z,13.13
2019-05-26T04:22:08.892Z,13.21
2019-05-26T04:23:08.917Z,13.13
2019-05-26T04:24:08.939Z,13.24
2019-05-26T04:25:08.973Z,13.26
2019-05-26T04:26:09.001Z,13.13
2019-05-26T04:27:09.010Z,13.11
2019-05-26T04:28:09.035Z,13.08
2019-05-26T04:29:09.063Z,13.21
2019-05-26T04:30:09.080Z,13.13
2019-05-26T04:31:09.194Z,13.26
2019-05-26T04:32:09.151Z,13.16
2019-05-26T04:33:09.162Z,13.16
2019-05-26T04:34:09.177Z,13.20
2019-05-26T04:35:09.205Z,13.17
2019-05-26T04:36:09.231Z,13.21
2019-05-26T04:37:09.247Z,13.09
2019-05-26T04:38:09.274Z,13.05
2019-05-26T04:39:09.305Z,13.24
2019-05-26T04:40:25.753Z,13.23
2019-05-26T04:41:09.350Z,13.24
2019-05-26T04:42:09.375Z,13.13
2019-05-26T04:43:14.434Z,13.24
2019-05-26T04:44:09.417Z,13.11
2019-05-26T04:45:09.445Z,13.20
2019-05-26T04:46:09.463Z,13.30
2019-05-26T04:47:09.488Z,13.28
2019-05-26T04:48:09.516Z,13.42
2019-05-26T04:49:09.531Z,13.39
2019-05-26T04:50:09.566Z,13.26
2019-05-26T04:51:09.584Z,13.17
2019-05-26T04:52:09.609Z,13.16
2019-05-26T04:53:09.638Z,13.17
2019-05-26T04:54:09.652Z,13.12
2019-05-26T04:55:09.678Z,13.24
2019-05-26T04:56:09.705Z,13.37
2019-05-26T04:57:09.727Z,13.57
2019-05-26T04:58:09.754Z,13.52
2019-05-26T04:59:09.779Z,13.55
2019-05-26T05:00:09.800Z,13.47
2019-05-26T05:01:09.822Z,13.37
2019-05-26T05:02:09.852Z,13.36
2019-05-26T05:03:09.880Z,13.31
2019-05-26T05:04:09.899Z,13.46
2019-05-26T05:05:09.917Z,13.36
2019-05-26T05:06:09.951Z,13.45
2019-05-26T05:07:09.963Z,13.55
2019-05-26T05:08:10.032Z,13.50
2019-05-26T05:09:10.019Z,13.54
2019-05-26T05:10:10.035Z,13.58
2019-05-26T05:11:10.055Z,13.62
2019-05-26T05:12:10.093Z,13.65
2019-05-26T05:13:10.105Z,13.67
2019-05-26T05:14:10.127Z,13.55
2019-05-26T05:15:10.150Z,13.43
2019-05-26T05:16:10.193Z,13.39
2019-05-26T05:17:10.199Z,13.54
2019-05-26T05:18:10.227Z,13.52
2019-05-26T05:19:10.255Z,13.64
2019-05-26T05:20:10.272Z,13.67
2019-05-26T05:21:10.295Z,13.76
2019-05-26T05:22:10.327Z,13.82
2019-05-26T05:23:10.343Z,13.68
2019-05-26T05:24:10.373Z,13.67
2019-05-26T05:25:14.920Z,13.65
2019-05-26T05:26:10.413Z,13.80
2019-05-26T05:27:10.440Z,13.68
2019-05-26T05:28:10.471Z,13.61
2019-05-26T05:29:10.487Z,13.70
2019-05-26T05:30:10.514Z,13.75
2019-05-26T05:31:10.548Z,13.82
2019-05-26T05:32:10.558Z,13.82
2019-05-26T05:33:10.587Z,13.91
2019-05-26T05:34:10.609Z,13.95
2019-05-26T05:35:10.633Z,14.05
2019-05-26T05:36:10.655Z,14.01
2019-05-26T05:37:10.682Z,14.04
2019-05-26T05:38:10.705Z,14.01
2019-05-26T05:39:10.754Z,14.08
2019-05-26T05:40:10.769Z,14.07
2019-05-26T05:41:10.771Z,14.01
2019-05-26T05:42:10.797Z,13.91
2019-05-26T05:43:10.836Z,13.97
2019-05-26T05:44:10.852Z,13.98
2019-05-26T05:45:10.881Z,13.95
2019-05-26T05:46:10.903Z,13.97
2019-05-26T05:47:10.920Z,13.94
2019-05-26T05:48:10.944Z,14.00
2019-05-26T05:49:10.975Z,14.18
2019-05-26T05:50:10.991Z,14.16
2019-05-26T05:51:11.016Z,14.12
2019-05-26T05:52:11.051Z,14.07
2019-05-26T05:53:11.063Z,14.12
2019-05-26T05:54:11.083Z,14.11
2019-05-26T05:55:11.123Z,14.16
2019-05-26T05:56:11.139Z,14.18
2019-05-26T05:57:11.172Z,14.15
2019-05-26T05:58:11.207Z,14.19
2019-05-26T05:59:11.206Z,14.36
2019-05-26T06:00:11.227Z,14.38
2019-05-26T06:01:11.252Z,14.33
2019-05-26T06:02:11.388Z,14.52
2019-05-26T06:03:11.338Z,14.53
2019-05-26T06:04:11.327Z,14.55
2019-05-26T06:05:11.361Z,14.58
2019-05-26T06:06:11.383Z,14.52
2019-05-26T06:07:11.414Z,14.58
2019-05-26T06:08:11.443Z,14.53
2019-05-26T06:09:11.445Z,14.68
2019-05-26T06:10:11.470Z,14.82
2019-05-26T06:11:16.318Z,14.79
2019-05-26T06:12:11.515Z,14.82
2019-05-26T06:13:11.553Z,14.79
2019-05-26T06:14:11.572Z,14.82
2019-05-26T06:15:12.200Z,14.87
2019-05-26T06:16:11.616Z,14.94
2019-05-26T06:17:11.640Z,14.93
2019-05-26T06:18:11.662Z,14.94
2019-05-26T06:19:11.688Z,14.97
2019-05-26T06:20:11.715Z,14.92
2019-05-26T06:21:11.734Z,14.94
2019-05-26T06:22:11.780Z,14.99
2019-05-26T06:23:11.789Z,15.10
2019-05-26T06:24:11.805Z,15.17
2019-05-26T06:25:11.832Z,15.17
2019-05-26T06:26:11.858Z,15.18
2019-05-26T06:27:11.881Z,15.18
2019-05-26T06:28:11.929Z,15.14
2019-05-26T06:29:12.082Z,15.32
2019-05-26T06:30:11.958Z,15.26
2019-05-26T06:31:11.986Z,15.15
2019-05-26T06:32:12.137Z,15.15
2019-05-26T06:33:12.029Z,15.25
2019-05-26T06:34:12.052Z,15.29
2019-05-26T06:35:12.078Z,15.32
2019-05-26T06:36:12.097Z,15.32
2019-05-26T06:37:12.130Z,15.33
2019-05-26T06:38:12.157Z,15.25
2019-05-26T06:39:12.209Z,15.30
2019-05-26T06:40:12.198Z,15.19
2019-05-26T06:41:12.240Z,15.37
2019-05-26T06:42:13.318Z,15.43
2019-05-26T06:43:12.268Z,15.37
2019-05-26T06:44:12.298Z,15.33
2019-05-26T06:45:12.317Z,15.29
2019-05-26T06:46:12.357Z,15.43
2019-05-26T06:47:12.379Z,15.47
2019-05-26T06:48:12.406Z,15.44
2019-05-26T06:49:12.417Z,15.65
2019-05-26T06:50:12.446Z,15.73
2019-05-26T06:51:12.466Z,15.72
2019-05-26T06:52:12.487Z,15.80
2019-05-26T06:53:12.521Z,15.80
2019-05-26T06:54:12.542Z,15.80
2019-05-26T06:55:12.561Z,15.83
2019-05-26T06:56:12.585Z,15.90
2019-05-26T06:57:12.627Z,15.91
2019-05-26T06:58:12.636Z,15.91
2019-05-26T06:59:12.660Z,15.91
2019-05-26T07:00:12.690Z,16.09
2019-05-26T07:01:12.706Z,16.02
2019-05-26T07:02:12.743Z,16.10
2019-05-26T07:03:12.753Z,16.17
2019-05-26T07:04:12.798Z,16.16
2019-05-26T07:05:12.824Z,16.18
2019-05-26T07:06:12.839Z,16.28
2019-05-26T07:07:12.856Z,16.34
2019-05-26T07:08:12.899Z,16.28
2019-05-26T07:09:12.916Z,16.18
2019-05-26T07:10:12.927Z,16.47
2019-05-26T07:11:12.958Z,16.37
2019-05-26T07:12:12.977Z,16.57
2019-05-26T07:13:13.017Z,16.51
2019-05-26T07:14:13.035Z,16.57
2019-05-26T07:15:13.062Z,16.46
2019-05-26T07:16:13.099Z,16.58
2019-05-26T07:17:13.102Z,16.72
2019-05-26T07:18:13.133Z,16.83
2019-05-26T07:19:13.148Z,16.76
2019-05-26T07:20:13.283Z,16.68
2019-05-26T07:21:13.198Z,16.79
2019-05-26T07:22:13.234Z,16.69
2019-05-26T07:23:13.433Z,16.77
2019-05-26T07:24:13.275Z,16.80
2019-05-26T07:25:13.314Z,16.82
2019-05-26T07:26:13.403Z,16.80
2019-05-26T07:27:13.355Z,16.68
2019-05-26T07:28:13.395Z,16.77
2019-05-26T07:29:13.396Z,16.91
2019-05-26T07:30:13.421Z,16.99
2019-05-26T07:31:13.444Z,16.99
2019-05-26T07:32:13.570Z,17.17
2019-05-26T07:33:13.519Z,17.28
2019-05-26T07:34:13.527Z,17.24
2019-05-26T07:35:13.550Z,17.32
2019-05-26T07:36:13.569Z,17.24
2019-05-26T07:37:13.673Z,17.28
2019-05-26T07:38:13.617Z,17.27
2019-05-26T07:39:13.647Z,17.38
2019-05-26T07:40:13.669Z,17.44
2019-05-26T07:41:13.694Z,17.53
2019-05-26T07:42:13.737Z,17.57
2019-05-26T07:43:13.745Z,17.46
2019-05-26T07:44:13.765Z,17.52
2019-05-26T07:45:13.787Z,17.39
2019-05-26T07:46:13.822Z,17.50
2019-05-26T07:47:13.841Z,17.39
2019-05-26T07:48:13.864Z,17.46
2019-05-26T07:49:13.890Z,17.47
2019-05-26T07:50:13.919Z,17.38
2019-05-26T07:51:13.972Z,17.53
2019-05-26T07:52:13.964Z,17.59
2019-05-26T07:53:13.991Z,17.65
2019-05-26T07:54:25.180Z,17.60
2019-05-26T07:55:14.041Z,17.57
2019-05-26T07:56:14.065Z,17.52
2019-05-26T07:57:14.097Z,17.57
2019-05-26T07:58:14.116Z,17.65
2019-05-26T07:59:14.143Z,17.59
2019-05-26T08:00:14.170Z,17.60
2019-05-26T08:01:14.194Z,17.71
2019-05-26T08:02:14.222Z,17.71
2019-05-26T08:03:14.245Z,17.69
2019-05-26T08:04:14.268Z,17.76
2019-05-26T08:05:14.298Z,17.79
2019-05-26T08:06:14.323Z,17.82
2019-05-26T08:07:14.338Z,17.86
2019-05-26T08:08:14.364Z,18.06
2019-05-26T08:09:14.396Z,17.95
2019-05-26T08:10:14.415Z,17.91
2019-05-26T08:11:14.444Z,18.06
2019-05-26T08:12:25.820Z,17.90
2019-05-26T08:13:14.508Z,18.06
2019-05-26T08:14:14.523Z,17.98
2019-05-26T08:15:14.542Z,18.19
2019-05-26T08:16:14.578Z,18.02
2019-05-26T08:17:14.592Z,17.93
2019-05-26T08:18:14.614Z,17.95
2019-05-26T08:19:14.640Z,17.98
2019-05-26T08:20:14.668Z,18.12
2019-05-26T08:21:14.700Z,18.08
2019-05-26T08:22:14.727Z,18.00
2019-05-26T08:23:14.750Z,18.12
2019-05-26T08:24:14.768Z,18.26
2019-05-26T08:25:14.802Z,18.23
2019-05-26T08:26:14.835Z,18.28
2019-05-26T08:27:14.862Z,18.36
2019-05-26T08:28:14.872Z,18.31
2019-05-26T08:29:14.900Z,18.30
2019-05-26T08:30:14.919Z,18.36
2019-05-26T08:31:14.946Z,18.37
2019-05-26T08:32:15.229Z,18.45
2019-05-26T08:33:15.003Z,18.45
2019-05-26T08:34:15.033Z,18.46
2019-05-26T08:35:15.060Z,18.45
2019-05-26T08:36:15.070Z,18.49
2019-05-26T08:37:15.121Z,18.60
2019-05-26T08:38:15.122Z,18.68
2019-05-26T08:39:15.157Z,18.55
2019-05-26T08:40:15.180Z,18.73
2019-05-26T08:41:15.200Z,18.55
2019-05-26T08:42:26.822Z,18.46
2019-05-26T08:43:15.254Z,18.46
2019-05-26T08:44:15.288Z,18.58
2019-05-26T08:45:15.300Z,18.58
2019-05-26T08:46:15.421Z,18.64
2019-05-26T08:47:15.352Z,18.61
2019-05-26T08:48:15.402Z,18.63
2019-05-26T08:49:15.416Z,18.52
2019-05-26T08:50:15.435Z,18.64
2019-05-26T08:51:15.464Z,18.73
2019-05-26T08:52:15.482Z,18.76
2019-05-26T08:53:15.510Z,18.86
2019-05-26T08:54:15.532Z,18.91
2019-05-26T08:55:15.552Z,18.82
2019-05-26T08:56:15.576Z,18.73
2019-05-26T08:57:15.612Z,18.83
2019-05-26T08:58:15.667Z,18.78
2019-05-26T08:59:15.675Z,18.82
2019-05-26T09:00:15.701Z,18.94
2019-05-26T09:01:15.705Z,19.11
2019-05-26T09:02:15.731Z,18.94
2019-05-26T09:03:15.855Z,19.16
2019-05-26T09:04:16.075Z,19.16
2019-05-26T09:05:16.018Z,19.17
2019-05-26T09:06:15.836Z,19.27
2019-05-26T09:07:15.896Z,19.27
2019-05-26T09:08:16.004Z,19.26
2019-05-26T09:09:15.911Z,19.24
2019-05-26T09:10:15.974Z,19.30
2019-05-26T09:11:15.973Z,19.30
2019-05-26T09:12:15.996Z,19.26
2019-05-26T09:13:16.042Z,19.37
2019-05-26T09:14:16.050Z,19.24
2019-05-26T09:15:16.064Z,19.26
2019-05-26T09:16:16.107Z,19.57
2019-05-26T09:17:16.121Z,19.59
2019-05-26T09:18:16.153Z,19.71
2019-05-26T09:19:16.185Z,19.66
2019-05-26T09:20:16.195Z,19.77
2019-05-26T09:21:16.228Z,19.75
2019-05-26T09:22:16.283Z,19.52
2019-05-26T09:23:16.278Z,19.67
2019-05-26T09:24:16.305Z,19.85
2019-05-26T09:25:16.329Z,19.89
2019-05-26T09:26:16.357Z,19.72
2019-05-26T09:27:16.381Z,19.59
2019-05-26T09:28:16.403Z,19.81
2019-05-26T09:29:16.426Z,20.11
2019-05-26T09:30:16.459Z,20.22
2019-05-26T09:31:16.475Z,20.26
2019-05-26T09:32:16.521Z,20.10
2019-05-26T09:33:16.563Z,20.18
2019-05-26T09:34:16.562Z,20.15
2019-05-26T09:35:16.587Z,20.10
2019-05-26T09:36:16.736Z,19.89
2019-05-26T09:37:16.640Z,20.02
2019-05-26T09:38:16.682Z,20.00
2019-05-26T09:39:16.691Z,20.12
2019-05-26T09:41:16.773Z,20.12
2019-05-26T09:42:16.786Z,20.08
2019-05-26T09:43:16.947Z,20.12
2019-05-26T09:44:16.827Z,20.12
2019-05-26T09:45:16.855Z,20.30
2019-05-26T09:46:16.887Z,20.37
2019-05-26T09:47:16.914Z,20.46
2019-05-26T09:49:16.957Z,20.60
2019-05-26T09:50:16.977Z,20.40
2019-05-26T09:51:16.999Z,20.64
2019-05-26T09:52:17.054Z,20.82
2019-05-26T09:53:17.052Z,20.67
2019-05-26T09:54:17.100Z,20.46
2019-05-26T09:55:17.134Z,20.44
2019-05-26T09:56:17.234Z,20.53
2019-05-26T09:57:17.189Z,20.58
2019-05-26T09:58:17.236Z,20.42
2019-05-26T09:59:17.239Z,20.68
2019-05-26T10:00:17.317Z,21.08
2019-05-26T10:01:17.270Z,21.38
2019-05-26T10:02:17.295Z,21.11
2019-05-26T10:03:17.330Z,21.05
2019-05-26T10:04:17.354Z,21.54
2019-05-26T10:05:17.386Z,22.12
2019-05-26T10:06:17.410Z,22.25
2019-05-26T10:07:17.421Z,22.47
2019-05-26T10:08:17.463Z,22.41
2019-05-26T10:09:17.476Z,22.46
2019-05-26T10:10:17.520Z,22.67
2019-05-26T10:11:18.610Z,21.96
2019-05-26T10:12:17.582Z,21.30
2019-05-26T10:13:30.811Z,21.41
2019-05-26T10:14:17.774Z,21.77
2019-05-26T10:15:17.640Z,22.04
2019-05-26T10:16:17.675Z,22.36
2019-05-26T10:17:17.700Z,22.15
2019-05-26T10:18:17.741Z,22.14
2019-05-26T10:19:17.814Z,22.15
2019-05-26T10:20:17.778Z,22.25
2019-05-26T10:21:17.811Z,22.21
2019-05-26T10:22:17.836Z,22.25
2019-05-26T10:23:17.930Z,22.37
2019-05-26T10:24:17.892Z,22.26
2019-05-26T10:25:17.922Z,21.74
2019-05-26T10:26:17.944Z,21.50
2019-05-26T10:27:18.081Z,21.32
2019-05-26T10:28:18.036Z,21.44
2019-05-26T10:29:18.044Z,21.32
2019-05-26T10:30:18.089Z,21.32
2019-05-26T10:31:18.086Z,21.47
2019-05-26T10:32:18.115Z,21.50
2019-05-26T10:33:18.149Z,21.33
2019-05-26T10:34:19.110Z,21.23
2019-05-26T10:35:18.746Z,21.00
2019-05-26T10:36:18.257Z,21.08
2019-05-26T10:38:18.441Z,21.08
2019-05-26T10:39:18.547Z,21.41
2019-05-26T10:40:18.376Z,21.62
2019-05-26T10:41:18.422Z,21.53
2019-05-26T10:42:18.450Z,21.50
2019-05-26T10:43:18.480Z,21.35
2019-05-26T10:44:39.508Z,21.56
2019-05-26T10:45:18.524Z,21.60
2019-05-26T10:46:18.557Z,21.68
2019-05-26T10:47:18.574Z,21.88
2019-05-26T10:48:18.634Z,21.74
2019-05-26T10:49:18.667Z,21.58
2019-05-26T10:50:39.874Z,21.58
2019-05-26T10:51:18.825Z,21.63
2019-05-26T10:52:19.077Z,21.63
2019-05-26T10:53:18.787Z,22.04
2019-05-26T10:54:18.773Z,21.91
2019-05-26T10:55:18.803Z,21.68
2019-05-26T10:56:39.883Z,21.94
2019-05-26T10:57:18.906Z,21.85
2019-05-26T11:00:00.896Z,22.10
2019-05-26T11:01:00.903Z,22.16
2019-05-26T11:02:00.957Z,22.07
2019-05-26T11:03:21.975Z,22.15
2019-05-26T11:04:00.965Z,22.37
2019-05-26T11:05:01.058Z,22.62
2019-05-26T11:06:01.399Z,22.71
2019-05-26T11:07:01.061Z,22.44
2019-05-26T11:08:01.089Z,22.46
2019-05-26T11:09:22.131Z,22.34
2019-05-26T11:10:01.285Z,22.00
2019-05-26T11:11:01.163Z,21.88
2019-05-26T11:12:01.233Z,21.77
2019-05-26T11:15:08.866Z,21.81
2019-05-26T11:16:29.934Z,21.75
2019-05-26T11:17:08.938Z,21.70
2019-05-26T11:18:08.945Z,21.72
2019-05-26T11:19:09.013Z,22.00
2019-05-26T11:20:09.002Z,22.16
2019-05-26T11:21:12.243Z,22.07
2019-05-26T11:22:30.117Z,21.91
2019-05-26T11:23:09.085Z,21.92
2019-05-26T11:27:10.868Z,22.08
2019-05-26T11:28:05.886Z,22.26
2019-05-26T11:29:05.929Z,22.38
2019-05-26T11:30:26.967Z,22.34
2019-05-26T11:31:05.982Z,22.22
2019-05-26T11:32:06.016Z,22.06
2019-05-26T11:33:06.104Z,21.89
2019-05-26T11:34:06.063Z,21.78
2019-05-26T11:35:06.081Z,21.66
2019-05-26T11:36:27.148Z,21.58
2019-05-26T11:37:06.159Z,21.48
2019-05-26T11:38:06.168Z,21.44
2019-05-26T11:39:06.199Z,21.54
2019-05-26T11:40:06.219Z,21.63
2019-05-26T11:41:06.294Z,21.78
2019-05-26T11:42:27.346Z,21.91
2019-05-26T11:43:16.333Z,22.03
2019-05-26T11:44:17.596Z,22.03
2019-05-26T11:45:06.371Z,21.99
2019-05-26T11:46:06.403Z,22.08
2019-05-26T11:47:06.415Z,22.03
2019-05-26T11:48:27.463Z,22.06
2019-05-26T11:49:06.667Z,22.06
2019-05-26T11:50:06.499Z,22.14
2019-05-26T11:51:06.532Z,22.10
2019-05-26T11:52:06.608Z,22.10
2019-05-26T11:53:06.582Z,22.18
2019-05-26T11:54:27.621Z,22.19
2019-05-26T11:55:06.622Z,22.18
2019-05-26T11:56:06.675Z,22.15
2019-05-26T11:57:06.797Z,22.18
2019-05-26T11:58:06.710Z,22.18
2019-05-26T11:59:06.784Z,22.18
2019-05-26T12:00:27.801Z,22.12
2019-05-26T12:01:06.796Z,22.10
2019-05-26T12:02:06.858Z,22.04
2019-05-26T12:03:06.841Z,22.04
2019-05-26T12:04:06.880Z,22.01
2019-05-26T12:05:06.908Z,22.01
2019-05-26T12:06:27.954Z,22.04
2019-05-26T12:07:06.972Z,21.89
2019-05-26T12:08:07.040Z,21.80
2019-05-26T12:09:07.042Z,21.68
2019-05-26T12:10:07.066Z,21.77
2019-05-26T12:11:07.076Z,21.78
2019-05-26T12:12:28.120Z,21.78
2019-05-26T12:13:07.119Z,21.89
2019-05-26T12:14:07.154Z,22.01
2019-05-26T12:15:07.205Z,21.96
2019-05-26T12:16:07.211Z,22.08
2019-05-26T12:17:07.252Z,22.01
2019-05-26T12:18:28.290Z,22.12
2019-05-26T12:19:07.407Z,22.15
2019-05-26T12:20:07.332Z,22.22
2019-05-26T12:21:07.339Z,22.21
2019-05-26T12:22:07.722Z,22.15
2019-05-26T12:23:07.396Z,22.22
2019-05-26T12:24:28.459Z,22.16
2019-05-26T12:25:07.483Z,22.16
2019-05-26T12:26:07.477Z,22.12
2019-05-26T12:27:07.506Z,22.08
2019-05-26T12:28:07.524Z,22.03
2019-05-26T12:29:07.569Z,22.14
2019-05-26T12:30:28.692Z,22.14
2019-05-26T12:31:07.628Z,22.30
2019-05-26T12:32:07.649Z,22.23
2019-05-26T12:33:07.720Z,22.26
2019-05-26T12:34:07.705Z,22.23
2019-05-26T12:35:07.732Z,22.30
2019-05-26T12:36:28.774Z,22.43
2019-05-26T12:37:07.790Z,22.49
2019-05-26T12:38:07.811Z,22.47
2019-05-26T12:39:07.838Z,22.38
2019-05-26T12:40:07.855Z,22.31
2019-05-26T12:41:07.889Z,22.23
2019-05-26T12:42:28.929Z,22.23
2019-05-26T12:43:07.950Z,22.16
2019-05-26T12:44:10.940Z,22.15
2019-05-26T12:45:07.997Z,22.15
2019-05-26T12:46:08.019Z,22.07
2019-05-26T12:47:08.048Z,22.01
2019-05-26T12:48:29.095Z,22.00
2019-05-26T12:49:08.096Z,22.01
2019-05-26T12:50:08.163Z,21.91
2019-05-26T12:51:08.185Z,21.91
2019-05-26T12:52:08.224Z,21.85
2019-05-26T12:53:08.216Z,21.80
2019-05-26T12:54:29.255Z,21.99
2019-05-26T12:55:09.742Z,21.89
2019-05-26T12:56:08.297Z,21.91
2019-05-26T12:57:08.316Z,21.94
2019-05-26T12:58:08.354Z,21.88
2019-05-26T12:59:08.409Z,21.91
2019-05-26T13:00:47.082Z,21.96
2019-05-26T13:01:08.437Z,22.03
2019-05-26T13:02:08.469Z,22.06